createdAt,value
2022-12-04T00:01:09.366Z,121.80
2022-12-04T00:02:56.494Z,114.75
2022-12-04T00:04:43.903Z,121.07
2022-12-04T00:06:31.517Z,112.65
2022-12-04T00:08:18.663Z,112.53
2022-12-04T00:10:06.516Z,111.10
2022-12-04T00:11:53.690Z,100.40
2022-12-04T00:13:41.802Z,106.85
2022-12-04T00:15:29.073Z,105.20
2022-12-04T00:17:16.472Z,103.80
2022-12-04T00:19:04.240Z,107.65
2022-12-04T00:20:51.805Z,104.30
2022-12-04T00:22:38.905Z,104.75
2022-12-04T00:24:26.073Z,108.70
2022-12-04T00:26:19.533Z,104.20
2022-12-04T00:28:06.763Z,98.00
2022-12-04T00:29:54.008Z,95.22
2022-12-04T00:31:41.668Z,101.32
2022-12-04T00:33:28.651Z,98.75
2022-12-04T00:35:15.711Z,94.70
2022-12-04T00:37:02.972Z,92.43
2022-12-04T00:38:50.917Z,96.20
2022-12-04T00:40:38.106Z,97.05
2022-12-04T00:42:25.414Z,93.10
2022-12-04T00:44:12.496Z,90.07
2022-12-04T00:45:59.843Z,77.05
2022-12-04T00:47:47.124Z,91.97
2022-12-04T00:49:34.349Z,92.85
2022-12-04T00:51:24.081Z,87.40
2022-12-04T00:53:12.454Z,86.90
2022-12-04T00:54:59.572Z,85.45
2022-12-04T00:56:46.606Z,91.50
2022-12-04T00:58:34.199Z,77.07
2022-12-04T01:00:21.470Z,79.50
2022-12-04T01:02:08.549Z,82.03
2022-12-04T01:03:55.934Z,76.40
2022-12-04T01:05:45.492Z,82.87
2022-12-04T01:07:32.786Z,77.50
2022-12-04T01:09:20.367Z,76.57
2022-12-04T01:11:07.536Z,72.10
2022-12-04T01:12:54.557Z,71.25
2022-12-04T01:14:41.890Z,70.30
2022-12-04T01:16:33.025Z,77.23
2022-12-04T01:18:20.426Z,76.30
2022-12-04T01:20:08.187Z,68.35
2022-12-04T01:21:55.225Z,70.85
2022-12-04T01:23:42.232Z,70.27
2022-12-04T01:25:29.656Z,67.22
2022-12-04T01:27:16.746Z,70.35
2022-12-04T01:29:04.057Z,74.80
2022-12-04T01:31:03.580Z,67.32
2022-12-04T01:32:50.857Z,61.13
2022-12-04T01:34:37.950Z,66.45
2022-12-04T01:36:28.376Z,68.28
2022-12-04T01:38:15.383Z,70.82
2022-12-04T01:40:02.454Z,64.10
2022-12-04T01:41:49.718Z,70.65
2022-12-04T01:43:37.937Z,68.97
2022-12-04T01:45:41.764Z,69.55
2022-12-04T01:47:29.096Z,68.05
2022-12-04T01:49:22.449Z,68.17
2022-12-04T01:51:23.207Z,67.35
2022-12-04T01:53:11.342Z,68.43
2022-12-04T01:56:54.946Z,64.43
2022-12-04T01:58:46.322Z,65.65
2022-12-04T02:00:34.035Z,65.18
2022-12-04T02:04:10.572Z,63.03
2022-12-04T02:05:57.669Z,69.17
2022-12-04T02:07:46.833Z,67.30
2022-12-04T02:09:35.649Z,62.47
2022-12-04T02:11:35.333Z,66.93
2022-12-04T02:13:42.186Z,61.20
2022-12-04T02:15:29.405Z,59.85
2022-12-04T02:17:27.336Z,65.53
2022-12-04T02:19:52.558Z,64.30
2022-12-04T02:21:43.666Z,67.70
2022-12-04T02:24:00.818Z,63.17
2022-12-04T02:27:57.024Z,65.75
2022-12-04T02:30:10.075Z,69.43
2022-12-04T02:32:23.623Z,59.72
2022-12-04T02:34:21.402Z,63.45
2022-12-04T02:36:14.831Z,62.20
2022-12-04T02:38:25.659Z,60.67
2022-12-04T02:40:28.802Z,56.83
2022-12-04T02:42:53.152Z,59.10
2022-12-04T02:44:47.253Z,54.75
2022-12-04T02:46:39.147Z,52.40
2022-12-04T02:48:28.768Z,61.58
2022-12-04T02:50:19.418Z,60.10
2022-12-04T02:52:11.810Z,59.30
2022-12-04T02:54:07.939Z,53.95
2022-12-04T02:55:59.012Z,55.30
2022-12-04T02:57:51.139Z,56.38
2022-12-04T02:59:46.240Z,53.10
2022-12-04T03:01:41.313Z,59.28
2022-12-04T03:03:31.588Z,56.90
2022-12-04T03:05:24.276Z,54.42
2022-12-04T03:07:17.761Z,55.80
2022-12-04T03:09:16.136Z,59.17
2022-12-04T03:11:04.179Z,55.95
2022-12-04T03:12:58.907Z,58.00
2022-12-04T03:15:12.646Z,59.63
2022-12-04T03:17:09.924Z,53.10
2022-12-04T03:19:02.572Z,60.38
2022-12-04T03:20:56.518Z,57.70
2022-12-04T03:22:50.665Z,63.28
2022-12-04T03:24:45.536Z,62.65
2022-12-04T03:26:45.899Z,61.70
2022-12-04T03:28:48.758Z,61.83
2022-12-04T03:30:43.318Z,59.90
2022-12-04T03:32:49.053Z,58.65
2022-12-04T03:34:48.374Z,59.05
2022-12-04T03:36:47.225Z,64.60
2022-12-04T03:39:00.353Z,62.20
2022-12-04T03:41:03.392Z,55.97
2022-12-04T03:42:58.995Z,59.22
2022-12-04T03:45:03.784Z,59.53
2022-12-04T03:46:58.138Z,57.25
2022-12-04T03:49:09.278Z,56.30
2022-12-04T03:51:04.912Z,58.95
2022-12-04T03:53:00.715Z,58.42
2022-12-04T03:54:52.219Z,58.75
2022-12-04T03:56:48.993Z,51.70
2022-12-04T03:58:38.168Z,56.78
2022-12-04T04:00:25.598Z,53.58
2022-12-04T04:02:18.432Z,55.70
2022-12-04T04:04:10.300Z,55.38
2022-12-04T04:06:06.185Z,55.65
2022-12-04T04:08:17.723Z,52.42
2022-12-04T04:10:14.260Z,60.03
2022-12-04T04:12:07.832Z,53.70
2022-12-04T04:14:37.632Z,53.92
2022-12-04T04:16:47.578Z,60.33
2022-12-04T04:18:53.533Z,54.67
2022-12-04T04:21:03.712Z,53.65
2022-12-04T04:23:13.907Z,57.45
2022-12-04T04:25:07.733Z,59.28
2022-12-04T04:26:58.035Z,52.95
2022-12-04T04:28:45.072Z,53.13
2022-12-04T04:30:34.556Z,51.10
2022-12-04T04:32:46.221Z,52.67
2022-12-04T04:35:14.057Z,50.72
2022-12-04T04:37:21.676Z,51.63
2022-12-04T04:39:36.396Z,52.95
2022-12-04T04:41:50.902Z,46.75
2022-12-04T04:43:59.496Z,53.78
2022-12-04T04:46:09.815Z,51.58
2022-12-04T04:48:08.397Z,57.10
2022-12-04T04:49:57.300Z,53.20
2022-12-04T04:51:45.317Z,49.92
2022-12-04T04:53:55.345Z,51.75
2022-12-04T04:55:43.636Z,51.20
2022-12-04T04:57:35.681Z,48.45
2022-12-04T04:59:23.017Z,50.45
2022-12-04T05:01:16.260Z,47.88
2022-12-04T05:03:03.788Z,51.33
2022-12-04T05:06:38.260Z,47.22
2022-12-04T05:08:26.000Z,49.03
2022-12-04T05:10:14.061Z,50.97
2022-12-04T05:12:01.117Z,45.30
2022-12-04T05:13:48.065Z,45.95
2022-12-04T05:15:35.410Z,52.53
2022-12-04T05:17:22.442Z,46.23
2022-12-04T05:19:28.277Z,46.57
2022-12-04T05:21:18.335Z,50.65
2022-12-04T05:23:05.467Z,48.58
2022-12-04T05:24:52.565Z,49.80
2022-12-04T05:26:40.046Z,55.70
2022-12-04T05:28:27.606Z,54.58
2022-12-04T05:30:14.783Z,51.75
2022-12-04T05:32:02.436Z,51.83
2022-12-04T05:33:49.495Z,48.78
2022-12-04T05:35:36.443Z,47.85
2022-12-04T05:37:24.642Z,52.30
2022-12-04T05:39:11.647Z,49.63
2022-12-04T05:41:00.322Z,47.97
2022-12-04T05:42:47.576Z,52.53
2022-12-04T05:44:34.642Z,51.60
2022-12-04T05:46:21.608Z,53.60
2022-12-04T05:48:09.053Z,50.35
2022-12-04T05:49:56.267Z,58.60
2022-12-04T05:51:43.455Z,55.00
2022-12-04T05:53:30.797Z,50.95
2022-12-04T05:55:17.883Z,59.30
2022-12-04T05:57:05.505Z,57.13
2022-12-04T06:00:39.946Z,48.40
2022-12-04T06:02:27.067Z,48.95
2022-12-04T06:04:14.509Z,56.50
2022-12-04T06:06:01.584Z,48.53
2022-12-04T06:07:48.563Z,49.33
2022-12-04T06:09:36.054Z,50.45
2022-12-04T06:11:31.828Z,51.10
2022-12-04T06:13:19.002Z,48.35
2022-12-04T06:15:06.643Z,47.28
2022-12-04T06:16:53.806Z,46.70
2022-12-04T06:18:41.399Z,53.45
2022-12-04T06:22:15.724Z,54.22
2022-12-04T06:24:03.691Z,51.30
2022-12-04T06:25:51.031Z,52.75
2022-12-04T06:27:38.031Z,55.17
2022-12-04T06:29:25.311Z,49.63
2022-12-04T06:31:14.902Z,50.33
2022-12-04T06:33:01.864Z,52.28
2022-12-04T06:34:53.559Z,45.83
2022-12-04T06:36:40.857Z,47.88
2022-12-04T06:38:28.679Z,43.13
2022-12-04T06:40:15.944Z,47.95
2022-12-04T06:42:03.364Z,46.47
2022-12-04T06:43:51.832Z,49.13
2022-12-04T06:45:38.871Z,51.95
2022-12-04T06:47:26.513Z,42.10
2022-12-04T06:49:13.609Z,48.13
2022-12-04T06:51:07.112Z,52.17
2022-12-04T06:52:54.666Z,50.13
2022-12-04T06:54:42.100Z,48.65
2022-12-04T06:56:31.619Z,49.60
2022-12-04T06:58:18.935Z,46.38
2022-12-04T07:00:06.772Z,48.45
2022-12-04T07:01:53.806Z,45.92
2022-12-04T07:03:46.368Z,44.97
2022-12-04T07:05:37.859Z,46.95
2022-12-04T07:07:24.934Z,51.07
2022-12-04T07:09:15.786Z,49.28
2022-12-04T07:11:02.782Z,49.65
2022-12-04T07:12:49.866Z,46.07
2022-12-04T07:14:37.182Z,46.72
2022-12-04T07:16:25.357Z,43.55
2022-12-04T07:18:12.783Z,45.45
2022-12-04T07:20:00.128Z,41.70
2022-12-04T07:21:47.394Z,43.70
2022-12-04T07:23:34.803Z,43.90
2022-12-04T07:25:22.364Z,46.00
2022-12-04T07:27:09.392Z,49.10
2022-12-04T07:28:57.637Z,44.83
2022-12-04T07:30:45.157Z,44.28
2022-12-04T07:32:32.534Z,45.47
2022-12-04T07:34:19.877Z,42.30
2022-12-04T07:36:11.424Z,43.95
2022-12-04T07:37:58.636Z,41.30
2022-12-04T07:39:45.692Z,46.75
2022-12-04T07:41:32.980Z,44.35
2022-12-04T07:43:27.346Z,45.22
2022-12-04T07:45:14.460Z,39.55
2022-12-04T07:47:01.988Z,47.22
2022-12-04T07:48:48.995Z,44.05
2022-12-04T07:50:36.122Z,50.60
2022-12-04T07:52:23.884Z,42.95
2022-12-04T07:54:11.968Z,42.97
2022-12-04T07:55:59.122Z,43.35
2022-12-04T07:57:46.473Z,46.00
2022-12-04T07:59:33.528Z,38.87
2022-12-04T08:01:22.996Z,48.37
2022-12-04T08:03:10.420Z,44.03
2022-12-04T08:04:57.528Z,43.35
2022-12-04T08:06:44.655Z,50.35
2022-12-04T08:08:32.391Z,45.60
2022-12-04T08:10:19.577Z,48.58
2022-12-04T08:12:07.453Z,43.30
2022-12-04T08:14:02.976Z,42.13
2022-12-04T08:15:50.408Z,47.60
2022-12-04T08:17:37.465Z,41.75
2022-12-04T08:19:25.124Z,45.33
2022-12-04T08:21:15.016Z,44.83
2022-12-04T08:23:02.338Z,46.95
2022-12-04T08:24:49.779Z,48.00
2022-12-04T08:26:37.907Z,45.00
2022-12-04T08:28:25.263Z,49.65
2022-12-04T08:30:13.534Z,47.38
2022-12-04T08:32:00.784Z,47.65
2022-12-04T08:33:48.977Z,49.97
2022-12-04T08:35:36.485Z,45.80
2022-12-04T08:37:23.759Z,48.17
2022-12-04T08:39:12.832Z,51.90
2022-12-04T08:41:06.517Z,49.33
2022-12-04T08:42:53.480Z,48.25
2022-12-04T08:44:40.608Z,45.20
2022-12-04T08:46:29.347Z,42.25
2022-12-04T08:48:17.441Z,38.70
2022-12-04T08:50:05.200Z,42.30
2022-12-04T08:51:55.634Z,48.65
2022-12-04T08:53:43.272Z,42.80
2022-12-04T08:55:30.971Z,43.75
2022-12-04T08:57:18.673Z,44.50
2022-12-04T08:59:06.576Z,43.42
2022-12-04T09:00:54.562Z,45.22
2022-12-04T09:02:42.434Z,43.80
2022-12-04T09:04:30.001Z,45.30
2022-12-04T09:06:18.661Z,41.10
2022-12-04T09:08:07.244Z,47.42
2022-12-04T09:09:54.794Z,44.03
2022-12-04T09:11:45.724Z,44.88
2022-12-04T09:13:33.603Z,49.08
2022-12-04T09:15:20.761Z,44.67
2022-12-04T09:17:08.145Z,42.63
2022-12-04T09:18:56.402Z,45.70
2022-12-04T09:22:51.288Z,40.88
2022-12-04T09:24:38.591Z,43.00
2022-12-04T09:26:28.609Z,43.80
2022-12-04T09:28:16.032Z,43.88
2022-12-04T09:30:24.429Z,39.60
2022-12-04T09:32:11.628Z,39.80
2022-12-04T09:34:01.969Z,49.88
2022-12-04T09:35:49.670Z,43.00
2022-12-04T09:37:37.119Z,41.75
2022-12-04T09:39:24.579Z,43.60
2022-12-04T09:41:38.720Z,42.63
2022-12-04T09:43:58.078Z,39.58
2022-12-04T09:45:53.619Z,42.40
2022-12-04T09:47:49.229Z,40.33
2022-12-04T09:50:10.141Z,39.65
2022-12-04T09:52:02.177Z,39.33
2022-12-04T09:54:14.106Z,40.03
2022-12-04T09:56:06.718Z,37.45
2022-12-04T09:58:02.026Z,40.78
2022-12-04T09:59:51.117Z,38.97
2022-12-04T10:01:53.871Z,40.70
2022-12-04T10:03:41.656Z,43.28
2022-12-04T10:05:40.583Z,45.05
2022-12-04T10:07:52.257Z,43.00
2022-12-04T10:09:51.116Z,44.25
2022-12-04T10:12:16.757Z,47.97
2022-12-04T10:14:17.200Z,46.95
2022-12-04T10:16:04.477Z,43.40
2022-12-04T10:18:19.824Z,44.50
2022-12-04T10:20:15.741Z,43.05
2022-12-04T10:22:21.386Z,49.03
2022-12-04T10:24:34.980Z,48.17
2022-12-04T10:26:27.636Z,44.40
2022-12-04T10:28:33.793Z,41.38
2022-12-04T10:30:25.194Z,44.50
2022-12-04T10:32:29.564Z,44.25
2022-12-04T10:34:28.635Z,38.25
2022-12-04T10:36:19.778Z,49.30
2022-12-04T10:38:13.279Z,47.42
2022-12-04T10:40:15.333Z,44.53
2022-12-04T10:42:07.040Z,42.53
2022-12-04T10:43:54.736Z,39.65
2022-12-04T10:45:41.980Z,36.03
2022-12-04T10:47:29.404Z,33.85
2022-12-04T10:49:31.941Z,36.30
2022-12-04T10:51:21.839Z,38.40
2022-12-04T10:53:15.523Z,39.85
2022-12-04T10:55:04.541Z,44.15
2022-12-04T10:56:59.990Z,38.47
2022-12-04T10:59:05.637Z,39.17
2022-12-04T11:01:10.673Z,46.33
2022-12-04T11:03:09.535Z,35.22
2022-12-04T11:04:59.233Z,36.17
2022-12-04T11:06:47.798Z,34.25
2022-12-04T11:08:45.106Z,34.42
2022-12-04T11:10:38.917Z,31.60
2022-12-04T11:12:26.517Z,37.63
2022-12-04T11:14:20.516Z,36.67
2022-12-04T11:16:10.289Z,35.90
2022-12-04T11:18:08.659Z,41.80
2022-12-04T11:20:15.897Z,40.33
2022-12-04T11:22:19.830Z,33.58
2022-12-04T11:24:16.191Z,39.50
2022-12-04T11:26:06.182Z,39.65
2022-12-04T11:27:57.741Z,41.95
2022-12-04T11:29:47.827Z,37.80
2022-12-04T11:31:36.186Z,41.20
2022-12-04T11:33:40.199Z,42.30
2022-12-04T11:35:30.226Z,42.33
2022-12-04T11:37:25.622Z,39.25
2022-12-04T11:39:12.882Z,41.50
2022-12-04T11:41:03.088Z,46.08
2022-12-04T11:43:18.102Z,45.63
2022-12-04T11:45:35.790Z,47.15
2022-12-04T11:47:26.297Z,42.08
2022-12-04T11:49:25.643Z,41.65
2022-12-04T11:51:21.761Z,46.63
2022-12-04T11:53:18.954Z,46.83
2022-12-04T11:55:22.428Z,46.63
2022-12-04T11:57:42.819Z,48.47
2022-12-04T11:59:44.979Z,40.05
2022-12-04T12:02:01.264Z,41.38
2022-12-04T12:03:54.427Z,51.47
2022-12-04T12:06:06.305Z,43.72
2022-12-04T12:08:38.581Z,48.63
2022-12-04T12:10:44.269Z,47.60
2022-12-04T12:13:02.470Z,52.08
2022-12-04T12:15:28.594Z,50.00
2022-12-04T12:17:29.080Z,52.27
2022-12-04T12:19:49.106Z,52.92
2022-12-04T12:21:44.911Z,63.80
2022-12-04T12:23:50.946Z,46.25
2022-12-04T12:26:10.147Z,47.67
2022-12-04T12:28:39.020Z,58.30
2022-12-04T12:30:33.326Z,54.92
2022-12-04T12:32:23.841Z,58.75
2022-12-04T12:34:31.375Z,58.97
2022-12-04T12:36:22.029Z,61.70
2022-12-04T12:38:20.352Z,61.10
2022-12-04T12:40:22.862Z,59.63
2022-12-04T12:42:21.993Z,70.00
2022-12-04T12:44:48.867Z,66.20
2022-12-04T12:46:51.731Z,65.97
2022-12-04T12:48:58.377Z,68.15
2022-12-04T12:53:05.692Z,63.67
2022-12-04T12:54:57.984Z,68.65
2022-12-04T12:56:51.553Z,73.78
2022-12-04T12:58:50.772Z,72.65
2022-12-04T13:00:45.186Z,66.38
2022-12-04T13:02:47.862Z,66.95
2022-12-04T13:04:42.270Z,56.00
2022-12-04T13:06:36.568Z,67.97
2022-12-04T13:08:40.918Z,66.65
2022-12-04T13:10:55.403Z,63.83
2022-12-04T13:13:08.792Z,69.93
2022-12-04T13:14:56.233Z,66.82
2022-12-04T13:19:25.392Z,64.68
2022-12-04T13:21:31.890Z,65.88
2022-12-04T13:24:00.274Z,69.88
2022-12-04T13:25:50.950Z,62.30
2022-12-04T13:27:56.872Z,71.78
2022-12-04T13:30:17.675Z,73.63
2022-12-04T13:32:27.654Z,67.13
2022-12-04T13:34:27.003Z,70.13
2022-12-04T13:36:39.960Z,77.90
2022-12-04T13:38:42.730Z,69.45
2022-12-04T13:40:38.892Z,78.38
2022-12-04T13:42:28.149Z,70.85
2022-12-04T13:44:24.476Z,74.43
2022-12-04T13:46:34.726Z,75.93
2022-12-04T13:48:40.930Z,73.30
2022-12-04T13:50:32.703Z,69.80
2022-12-04T13:52:36.495Z,65.63
2022-12-04T13:54:41.927Z,73.32
2022-12-04T13:56:31.484Z,78.55
2022-12-04T13:58:18.803Z,71.55
2022-12-04T14:00:33.133Z,82.00
2022-12-04T14:02:36.158Z,82.22
2022-12-04T14:04:26.307Z,77.25
2022-12-04T14:06:24.711Z,78.75
2022-12-04T14:08:27.491Z,80.25
2022-12-04T14:10:14.772Z,74.28
2022-12-04T14:12:04.986Z,76.82
2022-12-04T14:14:01.088Z,85.28
2022-12-04T14:16:08.361Z,85.57
2022-12-04T14:18:03.281Z,76.95
2022-12-04T14:20:05.847Z,82.65
2022-12-04T14:21:55.132Z,85.97
2022-12-04T14:23:43.816Z,89.35
2022-12-04T14:25:40.183Z,92.38
2022-12-04T14:27:53.126Z,91.82
2022-12-04T14:32:00.763Z,87.05
2022-12-04T14:33:59.404Z,88.13
2022-12-04T14:35:58.386Z,93.65
2022-12-04T14:38:06.819Z,84.18
2022-12-04T14:39:55.910Z,89.68
2022-12-04T14:41:43.488Z,96.93
2022-12-04T14:43:39.642Z,97.47
2022-12-04T14:45:43.791Z,87.22
2022-12-04T14:48:18.223Z,96.30
2022-12-04T14:50:20.800Z,87.40
2022-12-04T14:52:37.880Z,100.88
2022-12-04T14:54:53.073Z,98.07
2022-12-04T14:56:52.588Z,95.88
2022-12-04T14:58:40.263Z,104.43
2022-12-04T15:00:28.507Z,104.80
2022-12-04T15:02:34.785Z,106.50
2022-12-04T15:04:32.647Z,99.47
2022-12-04T15:06:31.754Z,96.95
2022-12-04T15:08:21.101Z,97.93
2022-12-04T15:10:39.370Z,92.93
2022-12-04T15:12:35.862Z,87.32
2022-12-04T15:14:24.950Z,100.65
2022-12-04T15:16:22.498Z,106.55
2022-12-04T15:20:11.964Z,93.97
2022-12-04T15:21:59.520Z,91.53
2022-12-04T15:23:47.005Z,90.60
2022-12-04T15:27:32.021Z,95.65
2022-12-04T15:29:28.440Z,99.53
2022-12-04T15:31:25.111Z,87.32
2022-12-04T15:33:21.496Z,81.20
2022-12-04T15:35:20.592Z,95.57
2022-12-04T15:37:16.307Z,97.28
2022-12-04T15:39:05.359Z,90.28
2022-12-04T15:40:56.100Z,95.88
2022-12-04T15:42:43.664Z,100.60
2022-12-04T15:44:33.316Z,117.68
2022-12-04T15:46:29.972Z,101.80
2022-12-04T15:48:31.429Z,98.28
2022-12-04T15:50:18.784Z,101.55
2022-12-04T15:52:14.618Z,96.60
2022-12-04T15:54:03.419Z,96.38
2022-12-04T15:56:05.715Z,94.68
2022-12-04T15:57:56.144Z,107.18
2022-12-04T15:59:50.171Z,95.32
2022-12-04T16:01:41.013Z,88.65
2022-12-04T16:03:43.009Z,83.25
2022-12-04T16:05:37.573Z,91.82
2022-12-04T16:07:29.865Z,87.65
2022-12-04T16:09:28.053Z,94.97
2022-12-04T16:11:18.712Z,85.10
2022-12-04T16:13:08.496Z,94.40
2022-12-04T16:14:56.689Z,92.72
2022-12-04T16:16:50.732Z,86.10
2022-12-04T16:18:38.921Z,81.38
2022-12-04T16:20:26.211Z,91.00
2022-12-04T16:22:23.137Z,80.25
2022-12-04T16:24:12.393Z,92.30
2022-12-04T16:25:59.919Z,81.40
2022-12-04T16:27:47.599Z,98.28
2022-12-04T16:29:35.023Z,95.10
2022-12-04T16:31:23.792Z,92.50
2022-12-04T16:33:15.491Z,91.45
2022-12-04T16:35:02.916Z,88.93
2022-12-04T16:36:50.215Z,92.78
2022-12-04T16:38:37.958Z,88.38
2022-12-04T16:40:25.097Z,86.70
2022-12-04T16:42:24.645Z,92.10
2022-12-04T16:44:15.531Z,85.43
2022-12-04T16:46:02.653Z,83.63
2022-12-04T16:47:49.963Z,81.93
2022-12-04T16:49:37.445Z,89.85
2022-12-04T16:51:26.742Z,80.65
2022-12-04T16:53:17.233Z,88.03
2022-12-04T16:55:31.552Z,82.60
2022-12-04T16:57:18.692Z,86.55
2022-12-04T16:59:11.614Z,75.70
2022-12-04T17:00:59.765Z,80.15
2022-12-04T17:04:34.604Z,85.63
2022-12-04T17:06:22.337Z,82.20
2022-12-04T17:08:09.760Z,85.57
2022-12-04T17:09:56.965Z,87.75
2022-12-04T17:11:48.084Z,86.32
2022-12-04T17:13:35.306Z,72.47
2022-12-04T17:15:22.902Z,85.72
2022-12-04T17:18:58.834Z,75.72
2022-12-04T17:20:46.107Z,82.60
2022-12-04T17:22:33.489Z,82.40
2022-12-04T17:24:21.080Z,82.63
2022-12-04T17:26:13.421Z,80.13
2022-12-04T17:28:01.077Z,91.47
2022-12-04T17:29:48.366Z,89.13
2022-12-04T17:31:35.568Z,84.53
2022-12-04T17:33:23.218Z,81.93
2022-12-04T17:35:12.691Z,84.43
2022-12-04T17:37:00.087Z,90.97
2022-12-04T17:38:47.821Z,85.15
2022-12-04T17:40:34.888Z,80.47
2022-12-04T17:42:22.043Z,77.03
2022-12-04T17:44:09.470Z,79.40
2022-12-04T17:45:58.151Z,82.25
2022-12-04T17:47:45.189Z,79.15
2022-12-04T17:49:32.908Z,85.90
2022-12-04T17:51:22.475Z,77.80
2022-12-04T17:53:09.704Z,77.47
2022-12-04T17:54:57.328Z,83.57
2022-12-04T17:56:48.212Z,88.05
2022-12-04T17:58:37.684Z,80.38
2022-12-04T18:00:26.167Z,81.18
2022-12-04T18:02:13.755Z,84.43
2022-12-04T18:05:50.803Z,80.50
2022-12-04T18:07:38.164Z,85.80
2022-12-04T18:09:25.260Z,79.22
2022-12-04T18:11:13.257Z,71.70
2022-12-04T18:13:01.018Z,86.93
2022-12-04T18:14:48.180Z,83.75
2022-12-04T18:16:38.410Z,75.22
2022-12-04T18:18:26.121Z,83.35
2022-12-04T18:20:13.339Z,80.75
2022-12-04T18:22:01.551Z,77.50
2022-12-04T18:23:48.733Z,82.18
2022-12-04T18:25:35.977Z,82.50
2022-12-04T18:27:23.502Z,83.45
2022-12-04T18:29:13.803Z,88.53
2022-12-04T18:31:06.262Z,80.43
2022-12-04T18:32:58.414Z,82.40
2022-12-04T18:34:45.566Z,80.75
2022-12-04T18:36:33.919Z,80.60
2022-12-04T18:38:26.624Z,73.85
2022-12-04T18:40:16.799Z,79.38
2022-12-04T18:42:04.011Z,70.15
2022-12-04T18:43:53.132Z,74.85
2022-12-04T18:45:40.316Z,76.05
2022-12-04T18:47:27.608Z,81.70
2022-12-04T18:49:15.469Z,78.30
2022-12-04T18:51:13.404Z,73.22
2022-12-04T18:53:01.721Z,82.18
2022-12-04T18:54:49.149Z,80.03
2022-12-04T18:56:36.594Z,78.63
2022-12-04T18:58:24.030Z,74.25
2022-12-04T19:00:11.934Z,73.10
2022-12-04T19:01:59.152Z,75.38
2022-12-04T19:03:47.982Z,71.22
2022-12-04T19:05:36.627Z,67.40
2022-12-04T19:07:23.791Z,64.40
2022-12-04T19:09:14.059Z,75.65
2022-12-04T19:11:13.181Z,69.20
2022-12-04T19:13:00.397Z,79.50
2022-12-04T19:14:47.926Z,72.45
2022-12-04T19:16:35.943Z,64.95
2022-12-04T19:20:14.097Z,74.75
2022-12-04T19:22:04.377Z,85.95
2022-12-04T19:23:56.766Z,65.35
2022-12-04T19:25:44.301Z,65.47
2022-12-04T19:27:32.064Z,64.20
2022-12-04T19:29:19.522Z,64.50
2022-12-04T19:31:16.397Z,70.32
2022-12-04T19:33:04.180Z,69.32
2022-12-04T19:34:51.692Z,70.50
2022-12-04T19:36:40.368Z,74.55
2022-12-04T19:38:30.205Z,69.40
2022-12-04T19:40:18.091Z,77.75
2022-12-04T19:42:06.865Z,72.03
2022-12-04T19:43:59.946Z,71.05
2022-12-04T19:45:49.507Z,75.82
2022-12-04T19:47:38.096Z,67.38
2022-12-04T19:49:26.955Z,69.25
2022-12-04T19:51:18.353Z,69.88
2022-12-04T19:53:07.439Z,72.07
2022-12-04T19:54:56.298Z,67.28
2022-12-04T19:56:46.601Z,82.75
2022-12-04T19:58:36.322Z,78.32
2022-12-04T20:00:25.636Z,76.55
2022-12-04T20:02:15.150Z,72.35
2022-12-04T20:04:06.177Z,71.30
2022-12-04T20:05:53.641Z,68.03
2022-12-04T20:07:41.224Z,68.72
2022-12-04T20:09:29.830Z,70.28
2022-12-04T20:11:19.616Z,73.32
2022-12-04T20:13:08.027Z,76.22
2022-12-04T20:14:56.148Z,73.30
2022-12-04T20:16:43.588Z,72.85
2022-12-04T20:18:31.118Z,77.30
2022-12-04T20:20:18.703Z,76.25
2022-12-04T20:22:05.982Z,87.35
2022-12-04T20:23:54.263Z,81.43
2022-12-04T20:25:41.725Z,72.60
2022-12-04T20:27:28.801Z,71.03
2022-12-04T20:29:19.047Z,73.30
2022-12-04T20:31:24.457Z,75.72
2022-12-04T20:33:12.091Z,72.90
2022-12-04T20:34:59.212Z,71.97
2022-12-04T20:36:47.890Z,79.72
2022-12-04T20:38:35.203Z,82.13
2022-12-04T20:40:22.389Z,86.45
2022-12-04T20:42:09.746Z,80.32
2022-12-04T20:44:00.742Z,75.20
2022-12-04T20:45:47.805Z,86.55
2022-12-04T20:47:36.491Z,78.75
2022-12-04T20:49:23.893Z,70.88
2022-12-04T20:51:10.935Z,73.95
2022-12-04T20:52:58.246Z,74.80
2022-12-04T20:54:45.468Z,75.73
2022-12-04T20:56:37.613Z,66.80
2022-12-04T20:58:25.315Z,72.38
2022-12-04T21:00:13.095Z,66.40
2022-12-04T21:02:00.468Z,67.38
2022-12-04T21:03:47.857Z,69.80
2022-12-04T21:05:34.982Z,72.40
2022-12-04T21:07:22.195Z,66.53
2022-12-04T21:09:19.834Z,69.78
2022-12-04T21:11:07.202Z,69.38
2022-12-04T21:13:12.897Z,58.95
2022-12-04T21:15:19.106Z,61.85
2022-12-04T21:17:09.600Z,56.17
2022-12-04T21:18:56.807Z,64.43
2022-12-04T21:20:44.313Z,61.38
2022-12-04T21:22:31.798Z,63.90
2022-12-04T21:24:20.825Z,67.05
2022-12-04T21:26:08.291Z,55.42
2022-12-04T21:27:57.593Z,59.63
2022-12-04T21:29:45.131Z,63.30
2022-12-04T21:31:33.555Z,67.07
2022-12-04T21:33:21.064Z,56.60
2022-12-04T21:35:08.783Z,66.97
2022-12-04T21:36:56.408Z,60.28
2022-12-04T21:38:43.784Z,65.22
2022-12-04T21:40:31.426Z,63.00
2022-12-04T21:42:31.046Z,63.80
2022-12-04T21:44:20.359Z,71.38
2022-12-04T21:46:09.651Z,68.05
2022-12-04T21:47:57.148Z,67.93
2022-12-04T21:49:44.909Z,66.83
2022-12-04T21:51:56.116Z,64.50
2022-12-04T21:53:42.594Z,59.60
2022-12-04T21:55:29.988Z,63.20
2022-12-04T21:57:17.315Z,64.07
2022-12-04T21:59:04.891Z,63.92
2022-12-04T22:00:52.672Z,58.75
2022-12-04T22:02:40.112Z,61.45
2022-12-04T22:04:27.954Z,78.13
2022-12-04T22:06:15.554Z,56.65
2022-12-04T22:08:02.744Z,59.80
2022-12-04T22:09:50.062Z,61.15
2022-12-04T22:11:37.975Z,68.17
2022-12-04T22:13:25.037Z,60.65
2022-12-04T22:15:12.278Z,56.13
2022-12-04T22:17:00.163Z,61.00
2022-12-04T22:18:47.345Z,64.03
2022-12-04T22:20:37.677Z,61.88
2022-12-04T22:22:24.788Z,63.20
2022-12-04T22:24:11.866Z,66.73
2022-12-04T22:26:11.555Z,66.45
2022-12-04T22:27:59.239Z,70.63
2022-12-04T22:31:38.675Z,61.22
2022-12-04T22:33:25.964Z,47.08
2022-12-04T22:35:13.878Z,60.90
2022-12-04T22:37:01.514Z,66.13
2022-12-04T22:39:19.062Z,64.68
2022-12-04T22:42:45.917Z,61.88
2022-12-04T22:44:33.078Z,66.72
2022-12-04T22:46:20.135Z,66.20
2022-12-04T22:48:07.503Z,76.00
2022-12-04T22:49:54.723Z,67.27
2022-12-04T22:51:41.951Z,71.88
2022-12-04T22:53:30.761Z,64.68
2022-12-04T22:55:17.965Z,62.55
2022-12-04T22:57:05.080Z,66.53
2022-12-04T22:58:53.646Z,62.75
2022-12-04T23:00:40.759Z,63.22
2022-12-04T23:02:27.797Z,48.65
2022-12-04T23:04:15.170Z,60.85
2022-12-04T23:06:02.350Z,70.00
2022-12-04T23:07:49.363Z,66.47
2022-12-04T23:09:37.028Z,57.45
2022-12-04T23:11:25.911Z,41.80
2022-12-04T23:13:12.973Z,57.65
2022-12-04T23:15:00.380Z,61.53
2022-12-04T23:16:48.013Z,57.67
2022-12-04T23:18:36.269Z,56.92
2022-12-04T23:20:23.645Z,67.43
2022-12-04T23:22:10.663Z,66.93
2022-12-04T23:23:57.701Z,76.73
2022-12-04T23:25:44.950Z,60.63
2022-12-04T23:27:32.593Z,62.23
2022-12-04T23:29:50.948Z,64.40
2022-12-04T23:31:30.156Z,57.75
2022-12-04T23:33:17.283Z,59.35
2022-12-04T23:35:04.573Z,55.50
2022-12-04T23:37:23.038Z,62.47
2022-12-04T23:39:10.690Z,63.15
2022-12-04T23:41:02.940Z,59.90
2022-12-04T23:42:50.319Z,57.60
2022-12-04T23:44:37.356Z,58.00
2022-12-04T23:46:29.036Z,50.47
2022-12-04T23:48:16.381Z,53.28
2022-12-04T23:50:04.761Z,57.10
2022-12-04T23:51:51.798Z,55.15
2022-12-04T23:53:39.697Z,57.72
2022-12-04T23:55:29.838Z,56.42
2022-12-04T23:57:20.994Z,58.22
2022-12-04T23:59:08.387Z,64.63
